Time;durP1;ratioP1;P1;durP2;ratioP2;P2;SDS_P1;SDS_P2;PMS_P1;PMS_P2;Temp;Humidity;BMP_temperature;BMP_pressure;BME280_temperature;BME280_humidity;BME280_pressure;Samples;Min_cycle;Max_cycle;Signal;HPM_P1;HPM_P2
2021/03/13 00:00:35;;;;;;;7.53;6.82;;;3.30;64.20;;;;;;5194180;28;20727;-66
2021/03/13 00:03:07;;;;;;;7.70;6.65;;;3.30;64.90;;;;;;5192328;28;20068;-67
2021/03/13 00:05:41;;;;;;;7.93;7.13;;;3.30;64.60;;;;;;5188436;28;20124;-66
2021/03/13 00:08:13;;;;;;;8.30;7.40;;;3.30;63.70;;;;;;5187597;28;20861;-66
2021/03/13 00:10:46;;;;;;;7.72;6.93;;;3.30;64.30;;;;;;5192076;28;20589;-66
2021/03/13 00:13:17;;;;;;;7.63;6.82;;;3.30;62.90;;;;;;5195482;28;20048;-67
2021/03/13 00:15:49;;;;;;;8.80;6.95;;;3.40;60.30;;;;;;5195817;28;20545;-67
2021/03/13 00:18:21;;;;;;;7.00;6.30;;;3.50;61.80;;;;;;5196906;28;20776;-66
2021/03/13 00:20:52;;;;;;;7.53;6.50;;;3.50;62.40;;;;;;5194005;28;20070;-67
2021/03/13 00:23:25;;;;;;;7.40;6.70;;;3.50;60.50;;;;;;5197594;28;20894;-67
2021/03/13 00:25:57;;;;;;;8.35;6.82;;;3.60;61.80;;;;;;5190900;28;20491;-66
2021/03/13 00:28:28;;;;;;;8.15;7.45;;;3.60;62.90;;;;;;5191236;28;20120;-66
2021/03/13 00:31:00;;;;;;;7.72;6.93;;;3.60;60.80;;;;;;5189954;28;20076;-66
2021/03/13 00:33:36;;;;;;;8.23;7.53;;;3.70;60.90;;;;;;5197000;28;20624;-66
2021/03/13 00:36:08;;;;;;;8.13;7.20;;;3.70;59.80;;;;;;5185610;28;20084;-66
2021/03/13 00:38:40;;;;;;;7.70;6.90;;;3.80;58.50;;;;;;5195943;28;20100;-66
2021/03/13 00:41:11;;;;;;;7.57;6.88;;;3.80;60.00;;;;;;5194139;28;20515;-66
2021/03/13 00:43:42;;;;;;;7.53;6.90;;;3.80;59.40;;;;;;5198162;28;20503;-66
2021/03/13 00:46:14;;;;;;;7.72;7.13;;;3.80;60.20;;;;;;5193144;28;20052;-66
2021/03/13 00:48:46;;;;;;;8.00;6.88;;;3.90;60.50;;;;;;5194233;28;20053;-66
2021/03/13 00:51:17;;;;;;;7.22;6.63;;;3.80;61.90;;;;;;5192806;28;20033;-66
2021/03/13 00:53:49;;;;;;;7.93;7.13;;;3.90;61.20;;;;;;5191353;28;20034;-65
2021/03/13 00:56:20;;;;;;;7.88;7.07;;;3.90;59.10;;;;;;5175643;28;20045;-66
2021/03/13 00:58:51;;;;;;;7.88;7.07;;;3.90;58.50;;;;;;5196052;28;20037;-66
2021/03/13 01:01:23;;;;;;;7.90;7.20;;;3.90;59.40;;;;;;5193465;28;20060;-65
2021/03/13 01:03:55;;;;;;;7.82;7.07;;;3.90;59.80;;;;;;5194099;28;20152;-66
2021/03/13 01:06:26;;;;;;;8.43;7.65;;;4.00;59.40;;;;;;5194751;28;20045;-65
2021/03/13 01:08:58;;;;;;;8.25;7.47;;;4.00;60.50;;;;;;5193853;28;20065;-68
2021/03/13 01:11:35;;;;;;;8.05;7.35;;;4.10;59.40;;;;;;5190692;28;20119;-66
2021/03/13 01:14:11;;;;;;;8.48;7.68;;;4.10;53.70;;;;;;5191687;28;20041;-66
2021/03/13 01:16:48;;;;;;;8.07;7.38;;;4.10;57.10;;;;;;5194284;28;20068;-66
2021/03/13 01:19:20;;;;;;;7.75;7.10;;;4.20;53.30;;;;;;5195194;28;20265;-66
2021/03/13 01:21:54;;;;;;;7.97;7.38;;;4.30;54.10;;;;;;5192990;28;20622;-66
2021/03/13 01:24:26;;;;;;;8.27;7.57;;;4.40;49.90;;;;;;5191412;28;20171;-66
2021/03/13 01:26:58;;;;;;;8.00;7.40;;;4.50;49.20;;;;;;5192417;28;20034;-66
2021/03/13 01:29:29;;;;;;;8.43;7.72;;;4.60;48.40;;;;;;5192015;28;20046;-66
2021/03/13 01:32:04;;;;;;;8.10;7.40;;;4.70;48.40;;;;;;5191453;28;20042;-66
2021/03/13 01:34:40;;;;;;;8.18;7.47;;;4.80;50.40;;;;;;5192937;28;20307;-66
2021/03/13 01:37:19;;;;;;;8.48;7.70;;;4.90;50.50;;;;;;5190925;28;20072;-66
2021/03/13 01:39:54;;;;;;;8.45;7.75;;;4.90;51.10;;;;;;5177804;28;20052;-66
2021/03/13 01:42:29;;;;;;;8.70;7.90;;;4.90;50.00;;;;;;5196354;28;20139;-66
2021/03/13 01:45:09;;;;;;;8.90;8.20;;;5.00;52.00;;;;;;5195807;28;20037;-66
2021/03/13 01:47:43;;;;;;;8.52;7.82;;;5.00;50.30;;;;;;5193687;28;20049;-65
2021/03/13 01:50:21;;;;;;;8.23;7.53;;;5.00;49.50;;;;;;5192185;28;20038;-66
2021/03/13 01:52:53;;;;;;;8.35;7.65;;;5.10;50.70;;;;;;5195417;28;20140;-65
2021/03/13 01:55:32;;;;;;;8.55;7.75;;;5.10;50.80;;;;;;5193011;28;20045;-66
2021/03/13 01:58:09;;;;;;;8.52;7.82;;;5.10;50.90;;;;;;5191681;28;20060;-66
2021/03/13 02:00:54;;;;;;;8.02;7.32;;;5.10;51.90;;;;;;5194741;28;20132;-65
2021/03/13 02:03:27;;;;;;;8.35;7.63;;;5.10;51.60;;;;;;5188976;28;20043;-66
2021/03/13 02:06:01;;;;;;;8.27;7.57;;;5.10;51.90;;;;;;5193641;28;20041;-67
2021/03/13 02:09:04;;;;;;;9.15;7.88;;;5.10;50.90;;;;;;5191952;28;20041;-66
2021/03/13 02:11:49;;;;;;;8.27;7.47;;;5.10;51.10;;;;;;5191750;28;20044;-65
2021/03/13 02:14:31;;;;;;;8.27;7.57;;;5.10;51.00;;;;;;5192069;28;20049;-65
2021/03/13 02:17:27;;;;;;;8.45;7.68;;;5.20;52.20;;;;;;5190699;28;20636;-66
2021/03/13 02:20:16;;;;;;;8.73;7.93;;;5.20;52.40;;;;;;5193603;28;20046;-66
2021/03/13 02:22:54;;;;;;;8.65;7.90;;;5.20;52.00;;;;;;5186742;28;20427;-66
2021/03/13 02:26:11;;;;;;;8.65;7.85;;;5.20;52.40;;;;;;5198093;28;20526;-66
2021/03/13 02:29:32;;;;;;;8.75;8.00;;;5.20;54.40;;;;;;5208795;28;20141;-65
2021/03/13 02:32:46;;;;;;;8.70;8.00;;;5.10;55.60;;;;;;5207157;28;20150;-66
2021/03/13 02:35:22;;;;;;;8.70;8.00;;;5.00;56.80;;;;;;5206583;28;20052;-66
2021/03/13 02:38:01;;;;;;;8.50;7.80;;;5.00;54.50;;;;;;5213094;28;20044;-66
2021/03/13 02:40:37;;;;;;;8.65;7.85;;;5.00;54.50;;;;;;5192890;28;20075;-66
2021/03/13 02:43:11;;;;;;;8.95;8.25;;;5.00;57.20;;;;;;5216704;28;20037;-66
2021/03/13 02:45:49;;;;;;;8.60;7.90;;;5.00;55.90;;;;;;5212697;28;20456;-66
2021/03/13 02:48:22;;;;;;;8.45;7.60;;;5.00;56.70;;;;;;5213810;28;20718;-66
2021/03/13 02:50:55;;;;;;;8.60;7.85;;;5.00;55.30;;;;;;5213324;28;20163;-66
2021/03/13 02:53:32;;;;;;;8.50;7.75;;;5.00;52.90;;;;;;5214215;28;20049;-67
2021/03/13 02:56:10;;;;;;;8.90;8.10;;;5.00;53.80;;;;;;5211046;28;20045;-66
2021/03/13 02:58:44;;;;;;;8.50;7.80;;;5.00;55.00;;;;;;5215005;28;20049;-65
2021/03/13 03:01:16;;;;;;;8.05;7.35;;;5.00;56.80;;;;;;5210409;28;20125;-66
2021/03/13 03:03:51;;;;;;;8.10;7.40;;;5.00;56.50;;;;;;5214256;28;20131;-66
2021/03/13 03:06:32;;;;;;;8.07;7.38;;;5.00;56.70;;;;;;5213649;28;20061;-66
2021/03/13 03:09:07;;;;;;;8.40;7.70;;;5.10;57.90;;;;;;5212955;28;20053;-69
2021/03/13 03:11:45;;;;;;;7.82;7.15;;;5.00;57.70;;;;;;5205920;28;20052;-67
2021/03/13 03:14:19;;;;;;;8.35;7.65;;;4.90;56.90;;;;;;5212280;28;20051;-67
2021/03/13 03:16:54;;;;;;;8.60;7.72;;;4.90;56.50;;;;;;5212462;28;20079;-67
2021/03/13 03:19:34;;;;;;;7.85;7.15;;;4.90;58.40;;;;;;5210795;28;20049;-66
2021/03/13 03:22:14;;;;;;;7.80;7.10;;;4.80;53.30;;;;;;5210341;28;20037;-66
2021/03/13 03:24:48;;;;;;;8.60;7.90;;;4.90;53.10;;;;;;5211194;28;20049;-67
2021/03/13 03:27:21;;;;;;;8.43;7.65;;;4.90;51.80;;;;;;5209559;28;20037;-67
2021/03/13 03:29:56;;;;;;;8.82;8.02;;;5.00;51.10;;;;;;5209504;28;20133;-66
2021/03/13 03:32:44;;;;;;;8.52;7.80;;;5.00;52.10;;;;;;5192630;28;20396;-67
2021/03/13 03:35:17;;;;;;;8.68;7.97;;;5.00;51.90;;;;;;5191224;28;20045;-66
2021/03/13 03:37:50;;;;;;;8.80;8.00;;;5.10;50.70;;;;;;5191250;28;20053;-66
2021/03/13 03:40:24;;;;;;;9.00;8.20;;;5.10;52.20;;;;;;5192074;28;20042;-66
2021/03/13 03:43:04;;;;;;;9.00;8.20;;;5.20;51.60;;;;;;5188837;28;20141;-66
2021/03/13 03:45:37;;;;;;;8.25;7.55;;;5.20;50.40;;;;;;5190853;28;20046;-68
2021/03/13 03:48:12;;;;;;;8.75;7.97;;;5.20;51.40;;;;;;5181642;28;20056;-66
2021/03/13 03:50:49;;;;;;;8.25;7.55;;;5.20;51.10;;;;;;5194498;28;20043;-65
2021/03/13 03:53:42;;;;;;;8.45;7.75;;;5.20;50.20;;;;;;5194756;28;20053;-66
2021/03/13 03:56:14;;;;;;;8.70;8.00;;;5.10;51.30;;;;;;5180932;28;20124;-66
2021/03/13 03:58:47;;;;;;;8.45;7.70;;;5.20;51.40;;;;;;5194985;28;20735;-67
2021/03/13 04:01:22;;;;;;;8.80;8.00;;;5.20;53.60;;;;;;5207614;28;20065;-66
2021/03/13 04:03:59;;;;;;;8.60;7.80;;;5.10;53.20;;;;;;5213088;28;20045;-65
2021/03/13 04:06:32;;;;;;;8.63;7.82;;;5.10;54.40;;;;;;5205819;28;20110;-67
2021/03/13 04:09:06;;;;;;;8.57;7.78;;;5.10;55.30;;;;;;5212321;28;20144;-66
2021/03/13 04:11:40;;;;;;;8.65;7.88;;;5.00;55.00;;;;;;5211917;28;20039;-65
2021/03/13 04:14:11;;;;;;;8.50;7.80;;;4.90;55.50;;;;;;5214471;28;20074;-66
2021/03/13 04:16:44;;;;;;;8.75;7.95;;;4.90;55.30;;;;;;5217212;28;20037;-66
2021/03/13 04:19:16;;;;;;;8.85;8.05;;;4.90;55.70;;;;;;5212869;28;20137;-66
2021/03/13 04:21:48;;;;;;;8.07;7.38;;;4.90;56.60;;;;;;5210756;28;20099;-67
2021/03/13 04:24:20;;;;;;;8.23;7.43;;;4.90;58.30;;;;;;5212378;28;20091;-66
2021/03/13 04:26:52;;;;;;;8.48;7.63;;;4.80;56.20;;;;;;5217016;28;20462;-66
2021/03/13 04:29:24;;;;;;;7.97;7.28;;;4.80;57.10;;;;;;5209150;28;20041;-66
2021/03/13 04:31:57;;;;;;;8.70;7.90;;;4.80;56.40;;;;;;5212318;28;20048;-67
2021/03/13 04:34:31;;;;;;;8.80;7.93;;;4.70;57.70;;;;;;5208422;28;20057;-67
2021/03/13 04:37:03;;;;;;;8.65;7.95;;;4.70;58.80;;;;;;5215874;28;20401;-67
2021/03/13 04:39:35;;;;;;;7.88;7.18;;;4.60;59.40;;;;;;5214886;28;20510;-67
2021/03/13 04:42:07;;;;;;;7.88;7.20;;;4.60;59.30;;;;;;5214175;28;20794;-68
2021/03/13 04:44:39;;;;;;;8.55;7.65;;;4.50;58.80;;;;;;5211330;28;20202;-67
2021/03/13 04:47:11;;;;;;;8.20;7.30;;;4.50;60.30;;;;;;5215555;28;20095;-66
2021/03/13 04:49:43;;;;;;;8.07;7.35;;;4.40;58.70;;;;;;5218412;28;20079;-66
2021/03/13 04:52:15;;;;;;;8.38;7.57;;;4.40;59.40;;;;;;5217235;28;20510;-66
2021/03/13 04:54:47;;;;;;;7.97;7.25;;;4.30;60.40;;;;;;5215953;28;20073;-66
2021/03/13 04:57:18;;;;;;;7.78;7.07;;;4.20;58.60;;;;;;5214894;28;20125;-66
2021/03/13 04:59:50;;;;;;;8.48;7.40;;;4.20;59.30;;;;;;5216905;28;20107;-66
2021/03/13 05:02:22;;;;;;;8.40;7.57;;;4.20;59.60;;;;;;5216108;28;20122;-66
2021/03/13 05:04:54;;;;;;;8.00;6.90;;;4.00;59.40;;;;;;5216380;28;20116;-66
2021/03/13 05:07:25;;;;;;;8.02;7.22;;;3.90;59.90;;;;;;5213576;28;20046;-66
2021/03/13 05:09:57;;;;;;;7.82;7.13;;;3.80;60.70;;;;;;5216894;28;20143;-66
2021/03/13 05:12:28;;;;;;;7.78;7.07;;;3.80;59.60;;;;;;5213422;28;20692;-67
2021/03/13 05:15:01;;;;;;;7.75;7.07;;;3.70;60.90;;;;;;5215976;28;20410;-68
2021/03/13 05:17:32;;;;;;;7.80;7.00;;;3.70;61.50;;;;;;5211592;28;20482;-67
2021/03/13 05:20:05;;;;;;;7.70;7.00;;;3.60;61.10;;;;;;5215749;28;20128;-66
2021/03/13 05:22:37;;;;;;;8.70;7.90;;;3.60;61.60;;;;;;5213142;28;20388;-66
2021/03/13 05:25:08;;;;;;;7.70;7.00;;;3.60;59.70;;;;;;5214317;28;20094;-66
2021/03/13 05:27:40;;;;;;;8.82;8.02;;;3.50;59.90;;;;;;5208033;28;20038;-66
2021/03/13 05:30:12;;;;;;;9.45;8.45;;;3.50;60.30;;;;;;5217305;28;20033;-66
2021/03/13 05:32:44;;;;;;;9.05;8.02;;;3.40;61.30;;;;;;5211958;28;20437;-66
2021/03/13 05:35:15;;;;;;;8.73;7.93;;;3.30;61.20;;;;;;5213539;28;20537;-66
2021/03/13 05:37:47;;;;;;;8.55;7.72;;;3.20;61.60;;;;;;5211924;28;20073;-67
2021/03/13 05:40:18;;;;;;;8.77;7.82;;;3.10;61.30;;;;;;5215966;28;20124;-66
2021/03/13 05:42:50;;;;;;;7.88;7.15;;;3.10;63.60;;;;;;5211221;28;20111;-66
2021/03/13 05:45:22;;;;;;;8.13;7.43;;;3.00;63.30;;;;;;5213814;28;20064;-66
2021/03/13 05:47:54;;;;;;;10.57;9.40;;;2.90;62.00;;;;;;5218366;28;20041;-66
2021/03/13 05:50:27;;;;;;;11.50;7.93;;;2.90;63.50;;;;;;5214746;28;20235;-66
2021/03/13 05:53:02;;;;;;;8.52;7.72;;;2.90;63.90;;;;;;5216776;28;20656;-67
2021/03/13 05:55:34;;;;;;;7.75;6.93;;;2.80;64.30;;;;;;5213642;28;20457;-67
2021/03/13 05:58:07;;;;;;;8.82;7.40;;;2.70;63.50;;;;;;5213815;28;20049;-66
2021/03/13 06:00:40;;;;;;;7.50;6.70;;;2.80;63.40;;;;;;5213300;28;20053;-66
2021/03/13 06:03:12;;;;;;;8.30;7.50;;;2.90;63.80;;;;;;5217269;28;20120;-66
2021/03/13 06:05:46;;;;;;;8.93;7.70;;;2.90;63.30;;;;;;5212434;28;21611;-66
2021/03/13 06:08:18;;;;;;;8.80;7.90;;;2.90;62.70;;;;;;5214544;28;20064;-66
2021/03/13 06:10:50;;;;;;;8.23;7.43;;;2.90;62.60;;;;;;5212533;28;20038;-66
2021/03/13 06:13:23;;;;;;;7.95;7.15;;;2.90;62.50;;;;;;5217911;28;20055;-65
2021/03/13 06:15:54;;;;;;;8.20;7.40;;;2.90;62.70;;;;;;5210360;28;20570;-65
2021/03/13 06:18:49;;;;;;;8.32;7.53;;;3.00;63.00;;;;;;5212753;28;20452;-65
2021/03/13 06:21:24;;;;;;;7.97;7.18;;;2.90;63.70;;;;;;5202313;28;20562;-67
2021/03/13 06:24:12;;;;;;;10.18;7.90;;;2.90;63.10;;;;;;5209498;28;20130;-66
2021/03/13 06:26:56;;;;;;;9.05;7.72;;;2.90;63.80;;;;;;5208132;28;20124;-66
2021/03/13 06:29:28;;;;;;;7.65;6.95;;;3.00;62.50;;;;;;5211754;28;20070;-66
2021/03/13 06:32:07;;;;;;;8.40;7.45;;;3.00;62.70;;;;;;5209810;28;20607;-67
2021/03/13 06:35:15;;;;;;;13.82;11.18;;;3.00;62.90;;;;;;5209032;28;20042;-66
2021/03/13 06:37:48;;;;;;;12.02;9.98;;;3.10;63.50;;;;;;5191980;28;20081;-66
2021/03/13 06:40:33;;;;;;;8.10;7.40;;;3.10;64.00;;;;;;5174835;28;20114;-67
2021/03/13 06:43:31;;;;;;;8.32;7.20;;;3.20;64.00;;;;;;5205183;28;20133;-67
2021/03/13 06:46:14;;;;;;;7.30;6.60;;;3.20;62.90;;;;;;5209467;28;20493;-67
2021/03/13 06:48:50;;;;;;;7.65;6.95;;;3.30;61.50;;;;;;5206919;28;20037;-67
2021/03/13 06:51:26;;;;;;;8.52;7.72;;;3.50;61.60;;;;;;5203232;28;20528;-67
2021/03/13 06:54:06;;;;;;;9.38;7.18;;;3.60;62.70;;;;;;5204124;28;20041;-65
2021/03/13 06:56:45;;;;;;;9.15;7.38;;;3.60;60.80;;;;;;5208556;28;20103;-65
2021/03/13 06:59:20;;;;;;;8.10;7.40;;;3.80;61.30;;;;;;5207761;28;20095;-66
2021/03/13 07:02:08;;;;;;;8.45;7.65;;;4.10;61.10;;;;;;5209657;28;20122;-66
2021/03/13 07:04:42;;;;;;;8.68;7.88;;;4.30;60.00;;;;;;5204257;28;20155;-66
2021/03/13 07:07:27;;;;;;;8.63;7.82;;;4.50;58.30;;;;;;5201630;28;20041;-65
2021/03/13 07:10:00;;;;;;;8.45;7.65;;;4.70;57.40;;;;;;5208362;28;20785;-66
2021/03/13 07:12:40;;;;;;;7.78;7.07;;;4.80;57.50;;;;;;5200607;28;20723;-66
2021/03/13 07:15:23;;;;;;;8.65;7.80;;;4.90;55.10;;;;;;5202691;28;20119;-66
2021/03/13 07:18:00;;;;;;;8.65;7.82;;;5.00;55.60;;;;;;5200982;28;20041;-66
2021/03/13 07:20:35;;;;;;;8.30;7.60;;;5.30;54.50;;;;;;5203242;28;20045;-66
2021/03/13 07:23:06;;;;;;;8.80;8.00;;;5.30;54.20;;;;;;5203535;28;20033;-65
2021/03/13 07:25:38;;;;;;;9.27;8.05;;;5.50;53.40;;;;;;5208745;28;20454;-66
2021/03/13 07:28:11;;;;;;;9.13;8.23;;;5.50;55.50;;;;;;5194005;28;20120;-66
2021/03/13 07:30:43;;;;;;;8.57;7.32;;;5.60;55.10;;;;;;5199620;28;20384;-65
2021/03/13 07:33:16;;;;;;;8.02;7.30;;;5.70;54.90;;;;;;5204065;28;20065;-66
2021/03/13 07:35:50;;;;;;;8.15;7.45;;;5.70;52.70;;;;;;5203904;28;20533;-66
2021/03/13 07:38:24;;;;;;;8.55;7.75;;;5.80;52.70;;;;;;5201104;28;20068;-65
2021/03/13 07:40:56;;;;;;;8.73;7.93;;;5.80;52.70;;;;;;5201228;28;20049;-66
2021/03/13 07:43:30;;;;;;;8.45;7.75;;;5.90;53.40;;;;;;5203781;28;20184;-66
2021/03/13 07:46:01;;;;;;;8.93;8.07;;;6.00;54.00;;;;;;5199111;28;20508;-67
2021/03/13 07:48:37;;;;;;;9.20;8.30;;;6.20;54.20;;;;;;5191173;28;20095;-66
2021/03/13 07:51:10;;;;;;;9.02;8.15;;;6.40;53.30;;;;;;5204391;28;20608;-68
2021/03/13 07:53:43;;;;;;;9.02;8.23;;;6.70;53.30;;;;;;5206108;28;20037;-66
2021/03/13 07:56:15;;;;;;;8.82;7.95;;;6.90;51.90;;;;;;5206716;28;20045;-66
2021/03/13 07:58:46;;;;;;;8.77;8.00;;;7.10;49.70;;;;;;5195873;28;20116;-66
2021/03/13 08:01:51;;;;;;;8.60;7.90;;;7.20;47.00;;;;;;5195829;28;20473;-67
2021/03/13 08:04:38;;;;;;;9.07;8.18;;;7.40;46.20;;;;;;5199858;28;20552;-66
2021/03/13 08:07:10;;;;;;;9.35;8.43;;;7.60;45.20;;;;;;5201792;28;20118;-67
2021/03/13 08:09:43;;;;;;;9.68;8.88;;;7.70;42.00;;;;;;5213058;28;20118;-66
2021/03/13 08:12:41;;;;;;;9.52;8.73;;;8.00;39.70;;;;;;5207878;28;20497;-67
2021/03/13 08:15:32;;;;;;;9.23;8.50;;;8.10;37.80;;;;;;5210314;28;20063;-66
2021/03/13 08:18:04;;;;;;;9.50;8.70;;;8.30;34.50;;;;;;5212088;28;20049;-67
2021/03/13 08:20:36;;;;;;;9.10;8.40;;;8.50;36.40;;;;;;5203385;28;20144;-67
2021/03/13 08:23:10;;;;;;;9.02;8.32;;;8.70;36.80;;;;;;5184845;28;20591;-66
2021/03/13 08:25:56;;;;;;;9.13;8.32;;;8.70;35.20;;;;;;5188572;28;20042;-67
2021/03/13 08:28:46;;;;;;;8.68;7.97;;;8.90;33.50;;;;;;5193180;28;20270;-65
2021/03/13 08:31:24;;;;;;;8.52;7.82;;;9.00;33.10;;;;;;5189781;28;20477;-66
2021/03/13 08:33:57;;;;;;;8.77;8.00;;;8.90;32.20;;;;;;5189985;28;20053;-68
2021/03/13 08:36:39;;;;;;;8.48;7.78;;;8.90;33.20;;;;;;5194430;28;20115;-66
2021/03/13 08:39:34;;;;;;;8.73;8.02;;;8.90;33.00;;;;;;5210173;28;20141;-66
2021/03/13 08:42:06;;;;;;;9.13;8.40;;;8.80;32.30;;;;;;5210392;28;20044;-66
2021/03/13 08:44:38;;;;;;;8.80;8.10;;;8.80;33.30;;;;;;5217807;28;20037;-66
2021/03/13 08:47:12;;;;;;;8.85;8.07;;;8.90;33.50;;;;;;5215200;28;20116;-66
2021/03/13 08:49:48;;;;;;;9.18;8.38;;;9.00;33.90;;;;;;5217887;28;20052;-66
2021/03/13 08:52:22;;;;;;;9.13;8.43;;;9.20;32.30;;;;;;5217227;28;20095;-67
2021/03/13 08:54:54;;;;;;;9.05;8.35;;;9.30;31.50;;;;;;5214047;28;20107;-66
2021/03/13 08:57:25;;;;;;;9.20;8.50;;;9.50;32.60;;;;;;5214334;28;20463;-66
2021/03/13 08:59:59;;;;;;;9.10;8.40;;;9.60;31.40;;;;;;5217533;28;20571;-66
2021/03/13 09:02:42;;;;;;;9.85;9.05;;;9.70;31.40;;;;;;5215125;28;20187;-66
2021/03/13 09:05:19;;;;;;;10.18;9.32;;;9.80;31.20;;;;;;5217961;28;20051;-66
2021/03/13 09:07:54;;;;;;;9.77;8.98;;;9.80;31.50;;;;;;5216968;28;20166;-66
2021/03/13 09:10:26;;;;;;;9.45;8.65;;;9.80;31.20;;;;;;5216980;28;20507;-65
2021/03/13 09:12:58;;;;;;;10.00;9.30;;;9.90;31.40;;;;;;5215262;28;20041;-67
2021/03/13 09:15:29;;;;;;;9.88;8.98;;;10.10;31.50;;;;;;5215687;28;20080;-66
2021/03/13 09:18:01;;;;;;;9.90;9.13;;;10.30;31.50;;;;;;5215967;28;20156;-66
2021/03/13 09:20:39;;;;;;;10.55;9.65;;;10.50;34.20;;;;;;5216796;28;20041;-67
2021/03/13 09:23:10;;;;;;;10.27;9.48;;;10.70;35.70;;;;;;5217603;28;20648;-66
2021/03/13 09:25:42;;;;;;;9.70;9.00;;;11.00;34.80;;;;;;5216714;28;20080;-65
2021/03/13 09:28:18;;;;;;;10.55;9.75;;;11.30;34.20;;;;;;5216248;28;20926;-65
2021/03/13 09:30:49;;;;;;;10.50;9.70;;;11.40;29.60;;;;;;5216758;28;20041;-67
2021/03/13 09:33:21;;;;;;;9.90;9.10;;;11.30;28.30;;;;;;5214149;28;20132;-67
2021/03/13 09:35:53;;;;;;;10.45;9.65;;;11.30;28.50;;;;;;5215741;28;20072;-68
2021/03/13 09:38:24;;;;;;;10.13;9.30;;;11.20;29.70;;;;;;5216434;28;20122;-68
2021/03/13 09:40:56;;;;;;;9.30;8.60;;;11.20;27.90;;;;;;5217429;28;20068;-68
2021/03/13 09:43:38;;;;;;;9.85;9.05;;;11.10;28.40;;;;;;5213067;28;20045;-68
2021/03/13 09:46:19;;;;;;;9.75;9.05;;;11.00;28.70;;;;;;5216179;28;20143;-67
2021/03/13 09:48:51;;;;;;;10.18;9.38;;;10.90;28.70;;;;;;5215414;28;20133;-67
2021/03/13 09:51:22;;;;;;;9.65;8.85;;;10.90;28.40;;;;;;5217410;28;20064;-69
2021/03/13 09:53:54;;;;;;;10.23;9.43;;;11.00;28.30;;;;;;5212747;28;20072;-68
2021/03/13 09:56:30;;;;;;;10.05;9.25;;;10.70;27.20;;;;;;5216964;28;20051;-68
2021/03/13 09:59:01;;;;;;;10.10;9.30;;;10.90;28.90;;;;;;5213397;28;20122;-67
2021/03/13 10:01:34;;;;;;;9.70;9.00;;;10.90;27.50;;;;;;5215135;28;20465;-69
2021/03/13 10:04:06;;;;;;;10.40;9.60;;;11.20;28.30;;;;;;5216273;28;20072;-67
2021/03/13 10:06:39;;;;;;;10.07;9.18;;;11.50;28.80;;;;;;5215731;28;20041;-68
2021/03/13 10:09:11;;;;;;;10.55;9.75;;;11.70;26.80;;;;;;5211705;28;20490;-67
2021/03/13 10:11:44;;;;;;;10.20;9.40;;;11.60;27.20;;;;;;5211643;28;20053;-68
2021/03/13 10:14:20;;;;;;;10.82;9.82;;;11.50;27.30;;;;;;5212058;28;20046;-68
2021/03/13 10:16:59;;;;;;;10.40;9.60;;;11.70;27.20;;;;;;5214033;28;20632;-67
2021/03/13 10:19:41;;;;;;;10.80;9.90;;;11.70;27.90;;;;;;5212401;28;20045;-66
2021/03/13 10:22:21;;;;;;;10.77;9.88;;;11.70;28.60;;;;;;5211895;28;20049;-65
2021/03/13 10:24:54;;;;;;;10.43;9.63;;;11.70;29.60;;;;;;5212633;28;20132;-67
2021/03/13 10:27:29;;;;;;;10.57;9.55;;;11.80;29.50;;;;;;5211271;28;20045;-66
2021/03/13 10:30:05;;;;;;;10.07;9.27;;;11.60;28.90;;;;;;5211681;28;20532;-65
2021/03/13 10:32:39;;;;;;;9.93;9.13;;;11.40;29.90;;;;;;5211451;28;20131;-65
2021/03/13 10:35:19;;;;;;;10.23;9.43;;;11.20;29.90;;;;;;5213073;28;20570;-66
2021/03/13 10:37:58;;;;;;;10.52;9.63;;;11.10;31.00;;;;;;5212675;28;20106;-68
2021/03/13 10:40:41;;;;;;;10.13;9.32;;;11.00;31.00;;;;;;5214009;28;20541;-67
2021/03/13 10:43:26;;;;;;;9.90;9.10;;;10.90;31.30;;;;;;5212544;28;20147;-66
2021/03/13 10:45:57;;;;;;;9.93;9.02;;;10.80;31.90;;;;;;5210091;28;20049;-68
2021/03/13 10:48:49;;;;;;;9.75;8.88;;;10.80;33.20;;;;;;5212324;28;20529;-66
2021/03/13 10:51:23;;;;;;;10.55;9.55;;;10.90;32.20;;;;;;5215509;28;20164;-68
2021/03/13 10:53:58;;;;;;;10.70;9.70;;;10.90;32.70;;;;;;5208892;28;20545;-68
2021/03/13 10:56:40;;;;;;;10.02;9.23;;;10.90;32.50;;;;;;5211352;28;20146;-68
2021/03/13 10:59:11;;;;;;;10.48;9.65;;;10.90;33.10;;;;;;5212246;28;20229;-67
2021/03/13 11:01:46;;;;;;;10.40;9.50;;;10.80;32.30;;;;;;5215503;28;20052;-68
2021/03/13 11:04:18;;;;;;;10.15;9.35;;;10.90;32.60;;;;;;5213662;28;20407;-68
2021/03/13 11:06:54;;;;;;;10.30;9.35;;;10.90;32.80;;;;;;5213671;28;20049;-65
2021/03/13 11:09:25;;;;;;;10.27;9.48;;;11.00;33.40;;;;;;5213532;28;20119;-65
2021/03/13 11:11:57;;;;;;;10.48;9.57;;;10.90;33.40;;;;;;5212550;28;20045;-65
2021/03/13 11:14:28;;;;;;;10.52;9.68;;;10.90;33.40;;;;;;5211749;28;20130;-67
2021/03/13 11:16:59;;;;;;;10.32;9.50;;;10.90;33.60;;;;;;5212214;28;20632;-68
2021/03/13 11:19:31;;;;;;;10.52;9.63;;;10.90;33.50;;;;;;5211593;28;20049;-68
2021/03/13 11:22:09;;;;;;;10.13;9.23;;;10.90;33.40;;;;;;5212387;28;20648;-69
2021/03/13 11:24:41;;;;;;;10.63;9.73;;;11.00;34.40;;;;;;5212582;28;20060;-69
2021/03/13 11:27:12;;;;;;;10.48;9.63;;;11.10;33.80;;;;;;5199283;28;20137;-67
2021/03/13 11:29:43;;;;;;;10.57;9.68;;;11.20;33.60;;;;;;5201845;28;20075;-67
2021/03/13 11:32:15;;;;;;;10.80;10.00;;;11.20;33.60;;;;;;5205066;28;20026;-68
2021/03/13 11:34:46;;;;;;;10.88;9.98;;;11.40;32.80;;;;;;5207792;28;20049;-69
2021/03/13 11:37:18;;;;;;;11.13;10.23;;;11.50;33.10;;;;;;5209426;28;20042;-69
2021/03/13 11:39:49;;;;;;;10.68;9.88;;;11.60;33.10;;;;;;5201890;28;20044;-68
2021/03/13 11:42:25;;;;;;;11.15;10.25;;;11.50;32.70;;;;;;5205249;28;20049;-67
2021/03/13 11:44:57;;;;;;;11.05;10.25;;;11.50;32.90;;;;;;5211689;28;20098;-67
2021/03/13 11:47:29;;;;;;;10.57;9.77;;;11.60;33.10;;;;;;5214297;28;20076;-67
2021/03/13 11:50:00;;;;;;;10.52;9.73;;;11.70;33.10;;;;;;5215091;28;20040;-68
2021/03/13 11:52:32;;;;;;;11.48;10.57;;;11.70;32.00;;;;;;5215117;28;20132;-67
2021/03/13 11:55:09;;;;;;;11.60;10.60;;;11.80;33.50;;;;;;5200937;28;20120;-68
2021/03/13 11:57:40;;;;;;;11.32;10.38;;;11.90;33.10;;;;;;5200101;28;20041;-68
2021/03/13 12:00:12;;;;;;;10.88;9.98;;;11.90;32.60;;;;;;5208542;28;20041;-68
2021/03/13 12:02:44;;;;;;;10.73;9.90;;;11.90;32.70;;;;;;5202243;28;20047;-68
2021/03/13 12:05:16;;;;;;;11.40;10.50;;;12.10;31.90;;;;;;5200071;28;20072;-67
2021/03/13 12:07:47;;;;;;;11.38;10.48;;;12.20;32.20;;;;;;5213460;28;20059;-69
2021/03/13 12:10:19;;;;;;;10.75;9.95;;;12.30;30.20;;;;;;5213234;28;20037;-69
2021/03/13 12:12:51;;;;;;;11.07;10.18;;;12.50;30.60;;;;;;5207050;28;20045;-68
2021/03/13 12:15:23;;;;;;;11.82;10.82;;;12.50;30.70;;;;;;5208019;28;20048;-68
2021/03/13 12:17:57;;;;;;;11.40;10.45;;;12.70;31.30;;;;;;5208221;28;20053;-67
2021/03/13 12:20:29;;;;;;;11.15;10.23;;;12.80;30.10;;;;;;5215210;28;20517;-69
2021/03/13 12:23:00;;;;;;;10.85;10.02;;;13.00;31.70;;;;;;5213192;28;20518;-69
2021/03/13 12:25:32;;;;;;;11.10;10.20;;;13.10;29.40;;;;;;5208839;28;20518;-67
2021/03/13 12:28:04;;;;;;;11.10;10.00;;;13.10;28.50;;;;;;5211707;28;20709;-67
2021/03/13 12:30:35;;;;;;;11.25;10.35;;;13.10;29.20;;;;;;5212035;28;20465;-70
2021/03/13 12:33:08;;;;;;;11.40;10.40;;;13.00;29.50;;;;;;5199982;28;20060;-67
2021/03/13 12:35:39;;;;;;;11.07;10.18;;;12.90;29.60;;;;;;5207419;28;20479;-67
2021/03/13 12:38:11;;;;;;;11.18;10.30;;;13.20;30.00;;;;;;5212778;28;20041;-69
2021/03/13 12:41:04;;;;;;;11.13;10.32;;;13.30;29.10;;;;;;5216423;28;20044;-68
2021/03/13 12:43:35;;;;;;;11.38;10.38;;;13.30;29.10;;;;;;5214907;28;20112;-67
2021/03/13 12:46:14;;;;;;;11.15;10.25;;;13.50;29.30;;;;;;5213934;28;20118;-67
2021/03/13 12:48:47;;;;;;;11.40;10.50;;;13.50;28.10;;;;;;5217385;28;20040;-68
2021/03/13 12:51:19;;;;;;;11.40;10.40;;;13.60;29.40;;;;;;5219469;28;20033;-67
2021/03/13 12:53:50;;;;;;;11.38;10.48;;;13.60;26.60;;;;;;5215662;28;20116;-68
2021/03/13 12:56:22;;;;;;;12.15;11.15;;;13.70;27.90;;;;;;5217921;28;20045;-67
2021/03/13 12:58:53;;;;;;;11.52;10.63;;;13.80;28.30;;;;;;5214694;28;20120;-67
2021/03/13 13:01:25;;;;;;;11.52;10.63;;;13.80;28.40;;;;;;5206392;28;20048;-67
2021/03/13 13:03:58;;;;;;;11.50;10.60;;;13.80;28.50;;;;;;5211077;28;20049;-67
2021/03/13 13:06:32;;;;;;;11.60;10.60;;;13.70;28.40;;;;;;5182063;28;20049;-67
2021/03/13 13:09:04;;;;;;;12.00;11.10;;;13.60;28.90;;;;;;5204158;28;20053;-67
2021/03/13 13:11:35;;;;;;;11.57;10.68;;;13.50;29.60;;;;;;5210199;28;20860;-68
2021/03/13 13:14:07;;;;;;;12.20;11.20;;;13.60;29.10;;;;;;5210870;28;20075;-68
2021/03/13 13:16:38;;;;;;;11.77;10.88;;;13.80;30.70;;;;;;5214117;28;20053;-68
2021/03/13 13:19:10;;;;;;;11.60;10.75;;;13.80;29.80;;;;;;5205978;28;20128;-67
2021/03/13 13:21:41;;;;;;;11.77;10.98;;;13.80;29.20;;;;;;5212225;28;20132;-67
2021/03/13 13:24:15;;;;;;;11.73;10.73;;;13.80;28.50;;;;;;5206333;28;20721;-68
2021/03/13 13:26:47;;;;;;;11.80;10.80;;;13.70;28.70;;;;;;5196304;28;20792;-67
2021/03/13 13:29:18;;;;;;;11.43;10.52;;;13.80;29.30;;;;;;5213596;28;20712;-69
2021/03/13 13:31:50;;;;;;;11.57;10.68;;;13.90;30.20;;;;;;5206477;28;20049;-68